This demonstration page uses our WeatherBlox Daily Observations layout. Learn more.

Left ArrowRight Arrow

36.17497, -115.13722

Hourly Observations for October 20, 2016

Temp ( °F °C ) Dew Point ( °F °C ) Humidity (%) Winds ( mph kmh ) Pressure ( in mb ) Visibility ( mi km ) Precip ( " mm )
12:53 am 00:53 Clear 64 17.8 19 -7.2 18 18 NNW 9 15 30.23 1024 10 16.0934 0 0
1:53 am 01:53 Clear 65 18.3 19 -7.2 17 17 N 10 17 30.23 1024 10 16.0934 0 0
2:53 am 02:53 Clear 62 16.7 18 -7.8 18 18 N 9 15 30.23 1024 10 16.0934 0 0
3:53 am 03:53 Clear 62 16.7 18 -7.8 18 18 N 14 22 30.22 1024 10 16.0934 0 0
4:53 am 04:53 Clear 61 16.1 18 -7.8 19 19 N 14 22 30.23 1024 10 16.0934 0 0
5:53 am 05:53 Clear 59 15 18 -7.8 20 20 NNW 10 17 30.24 1024 10 16.0934 0 0
6:53 am 06:53 Sunny 56 13.3 21 -6.1 26 26 WNW 5 7 30.27 1025 10 16.0934 0 0
7:53 am 07:53 Sunny 60 15.6 19 -7.2 20 20 NNW 10 17 30.27 1025 10 16.0934 0 0
8:53 am 08:53 Sunny 65 18.3 21 -6.1 19 19 N 8 13 30.28 1025 10 16.0934 0 0
9:53 am 09:53 Sunny 69 20.6 21 -6.1 16 16 N 6 9 30.27 1025 10 16.0934 0 0
10:53 am 10:53 Sunny 72 22.2 21 -6.1 15 15 NNW 6 9 30.26 1025 10 16.0934 0 0
11:53 am 11:53 Sunny 74 23.3 20 -6.7 13 13 Calm 30.23 1024 10 16.0934 0 0
12:53 pm 12:53 Sunny 74 23.3 20 -6.7 13 13 WSW 6 9 30.2 1023 10 16.0934 0 0
1:53 pm 13:53 Sunny 77 25 20 -6.7 12 12 Calm 30.16 1021 10 16.0934 0 0
2:53 pm 14:53 Sunny 78 25.6 19 -7.2 11 11 S 6 9 30.13 1020 10 16.0934 0 0
3:53 pm 15:53 Sunny 79 26.1 19 -7.2 10 10 WSW 6 9 30.11 1020 10 16.0934 0 0
4:53 pm 16:53 Sunny 79 26.1 19 -7.2 10 10 SW 6 9 30.1 1019 10 16.0934 0 0
5:53 pm 17:53 Sunny 78 25.6 19 -7.2 11 11 W 5 7 30.09 1019 10 16.0934 0 0
6:53 pm 18:53 Clear 74 23.3 22 -5.6 14 14 W 5 7 30.1 1019 10 16.0934 0 0
7:53 pm 19:53 Clear 69 20.6 23 -5 17 17 NW 5 7 30.11 1020 10 16.0934 0 0
8:53 pm 20:53 Clear 66 18.9 25 -3.9 21 21 NW 5 7 30.1 1019 10 16.0934 0 0
9:53 pm 21:53 Clear 65 18.3 23 -5 20 20 NW 8 13 30.11 1020 10 16.0934 0 0
10:53 pm 22:53 Clear 64 17.8 20 -6.7 18 18 WNW 9 15 30.1 1019 10 16.0934 0 0
11:53 pm 23:53 Clear 63 17.2 21 -6.1 20 20 WNW 7 11 30.09 1019 10 16.0934 0 0

Powered by AerisWeather